createdAt,value
2022-08-11T00:05:04.423Z,37.71
2022-08-11T00:10:08.271Z,38.08
2022-08-11T00:15:12.034Z,38.18
2022-08-11T00:20:17.151Z,37.73
2022-08-11T00:25:21.109Z,38.01
2022-08-11T00:30:23.870Z,38.03
2022-08-11T00:35:54.595Z,37.94
2022-08-11T00:40:56.118Z,37.75
2022-08-11T00:46:26.392Z,37.88
2022-08-11T00:52:03.981Z,37.76
2022-08-11T00:57:37.747Z,38.10
2022-08-11T01:02:47.807Z,38.03
2022-08-11T01:08:15.879Z,37.99
2022-08-11T01:13:30.774Z,38.05
2022-08-11T01:18:53.974Z,38.21
2022-08-11T01:24:29.509Z,38.03
2022-08-11T01:29:55.285Z,38.33
2022-08-11T01:35:28.745Z,38.32
2022-08-11T01:41:13.176Z,38.22
2022-08-11T01:46:17.364Z,38.21
2022-08-11T01:51:30.202Z,38.09
2022-08-11T01:56:43.212Z,37.99
2022-08-11T02:01:58.337Z,37.94
2022-08-11T02:07:09.037Z,37.75
2022-08-11T02:12:16.413Z,37.63
2022-08-11T02:17:20.883Z,37.88
2022-08-11T02:22:47.779Z,37.91
2022-08-11T02:27:53.966Z,37.89
2022-08-11T02:33:20.142Z,37.67
2022-08-11T02:38:27.476Z,37.90
2022-08-11T02:43:37.738Z,38.12
2022-08-11T02:49:06.913Z,38.28
2022-08-11T02:54:14.298Z,38.32
2022-08-11T02:59:41.589Z,38.33
2022-08-11T03:04:51.366Z,38.14
2022-08-11T03:09:59.772Z,38.32
2022-08-11T03:15:22.379Z,38.35
2022-08-11T03:20:33.468Z,38.19
2022-08-11T03:25:47.636Z,38.39
2022-08-11T03:30:55.220Z,38.63
2022-08-11T03:36:07.078Z,40.45
2022-08-11T03:42:03.768Z,41.79
2022-08-11T03:47:04.747Z,42.97
2022-08-11T03:52:12.920Z,46.72
2022-08-11T03:57:46.261Z,47.69
2022-08-11T04:03:16.616Z,48.68
2022-08-11T04:08:45.014Z,50.45
2022-08-11T04:14:41.856Z,49.39
2022-08-11T04:19:55.962Z,50.17
2022-08-11T04:25:12.130Z,51.19
2022-08-11T04:30:17.529Z,51.16
2022-08-11T04:35:39.248Z,50.42
2022-08-11T04:41:14.361Z,51.28
2022-08-11T04:46:42.425Z,52.56
2022-08-11T04:52:25.129Z,52.30
2022-08-11T04:58:03.097Z,51.58
2022-08-11T05:03:32.484Z,53.35
2022-08-11T05:08:57.236Z,53.26
2022-08-11T05:14:37.115Z,53.60
2022-08-11T05:19:57.275Z,53.23
2022-08-11T05:26:08.971Z,53.81
2022-08-11T05:31:03.418Z,54.43
2022-08-11T05:36:09.792Z,53.32
2022-08-11T05:41:31.512Z,53.12
2022-08-11T05:46:57.718Z,53.19
2022-08-11T05:52:18.314Z,52.85
2022-08-11T05:57:50.379Z,51.73
2022-08-11T06:02:49.599Z,50.49
2022-08-11T06:07:54.126Z,49.84
2022-08-11T06:12:58.429Z,49.69
2022-08-11T06:18:02.848Z,48.32
2022-08-11T06:23:07.794Z,48.05
2022-08-11T06:28:15.983Z,47.67
2022-08-11T06:33:37.075Z,47.72
2022-08-11T06:38:47.981Z,46.74
2022-08-11T06:43:55.315Z,46.70
2022-08-11T06:48:59.306Z,46.09
2022-08-11T06:54:04.272Z,45.77
2022-08-11T06:59:32.417Z,44.95
2022-08-11T07:04:41.729Z,43.53
2022-08-11T07:10:22.772Z,42.96
2022-08-11T07:16:10.924Z,42.89
2022-08-11T07:21:59.917Z,42.35
2022-08-11T07:27:12.140Z,41.67
2022-08-11T07:32:24.268Z,41.54
2022-08-11T07:37:27.346Z,41.28
2022-08-11T07:42:31.502Z,41.28
2022-08-11T07:47:53.765Z,41.50
2022-08-11T07:52:56.792Z,41.20
2022-08-11T07:58:19.778Z,41.60
2022-08-11T08:03:54.827Z,41.65
2022-08-11T08:09:15.665Z,41.67
2022-08-11T08:14:36.314Z,41.28
2022-08-11T08:19:41.224Z,41.19
2022-08-11T08:24:44.028Z,40.75
2022-08-11T08:30:04.508Z,40.50
2022-08-11T08:35:09.138Z,39.98
2022-08-11T08:40:12.414Z,39.74
2022-08-11T08:45:16.237Z,39.65
2022-08-11T08:50:27.762Z,40.00
2022-08-11T08:55:30.874Z,40.05
2022-08-11T09:00:40.541Z,38.55
2022-08-11T09:05:44.849Z,39.02
2022-08-11T09:10:47.739Z,38.94
2022-08-11T09:15:54.435Z,39.31
2022-08-11T09:21:00.500Z,39.09
2022-08-11T09:26:20.913Z,39.26
2022-08-11T09:31:24.146Z,38.87
2022-08-11T09:36:54.618Z,39.22
2022-08-11T09:42:02.895Z,39.37
2022-08-11T09:47:15.057Z,39.53
2022-08-11T09:52:19.170Z,39.54
2022-08-11T09:57:39.829Z,39.08
2022-08-11T10:02:45.001Z,39.29
2022-08-11T10:07:52.395Z,39.30
2022-08-11T10:12:58.001Z,39.13
2022-08-11T10:18:21.474Z,39.40
2022-08-11T10:24:00.451Z,39.01
2022-08-11T10:29:44.259Z,39.13
2022-08-11T10:34:49.551Z,39.14
2022-08-11T10:40:02.346Z,39.06
2022-08-11T10:45:26.172Z,39.03
2022-08-11T10:50:46.711Z,39.26
2022-08-11T10:56:08.555Z,39.29
2022-08-11T11:01:11.389Z,39.24
2022-08-11T11:06:28.354Z,39.27
2022-08-11T11:11:53.909Z,39.34
2022-08-11T11:17:29.217Z,39.13
2022-08-11T11:22:41.449Z,39.18
2022-08-11T11:27:58.170Z,39.18
2022-08-11T11:33:04.393Z,38.99
2022-08-11T11:38:13.837Z,38.95
2022-08-11T11:43:18.477Z,39.25
2022-08-11T11:48:21.391Z,39.68
2022-08-11T11:53:24.195Z,39.16
2022-08-11T11:58:46.330Z,39.35
2022-08-11T12:03:50.999Z,39.37
2022-08-11T12:08:56.289Z,39.64
2022-08-11T12:14:01.638Z,39.40
2022-08-11T12:19:06.716Z,39.40
2022-08-11T12:24:29.183Z,39.22
2022-08-11T12:29:34.993Z,39.36
2022-08-11T12:34:37.784Z,39.26
2022-08-11T12:40:10.944Z,39.25
2022-08-11T12:45:31.404Z,39.39
2022-08-11T12:50:51.434Z,39.35
2022-08-11T12:56:11.834Z,39.95
2022-08-11T13:01:33.501Z,39.67
2022-08-11T13:06:37.673Z,40.23
2022-08-11T13:11:57.745Z,40.17
2022-08-11T13:17:19.583Z,40.33
2022-08-11T13:22:23.158Z,40.54
2022-08-11T13:27:26.024Z,40.72
2022-08-11T13:32:30.143Z,40.74
2022-08-11T13:38:19.285Z,40.54
2022-08-11T13:42:59.013Z,40.68
2022-08-11T13:48:03.161Z,40.63
2022-08-11T13:53:05.915Z,40.63
2022-08-11T13:58:19.076Z,40.70
2022-08-11T14:03:26.942Z,40.34
2022-08-11T14:08:49.644Z,40.86
2022-08-11T14:13:53.004Z,40.82
2022-08-11T14:18:59.288Z,40.80
2022-08-11T14:24:02.768Z,40.69
2022-08-11T14:29:08.910Z,40.77
2022-08-11T14:34:14.578Z,40.71
2022-08-11T14:39:18.620Z,40.71
2022-08-11T14:44:39.084Z,40.57
2022-08-11T14:49:58.493Z,40.32
2022-08-11T14:55:24.771Z,40.44
2022-08-11T15:00:27.660Z,40.47
2022-08-11T15:05:31.800Z,40.67
2022-08-11T15:10:34.625Z,40.44
2022-08-11T15:15:55.180Z,40.39
2022-08-11T15:21:17.043Z,40.59
2022-08-11T15:26:40.875Z,40.33
2022-08-11T15:32:01.235Z,40.57
2022-08-11T15:37:26.324Z,40.29
2022-08-11T15:42:46.877Z,40.15
2022-08-11T15:47:57.541Z,40.36
2022-08-11T15:53:10.739Z,40.35
2022-08-11T15:58:30.951Z,40.16
2022-08-11T16:04:06.502Z,40.94
2022-08-11T16:09:18.437Z,40.91
2022-08-11T16:14:39.577Z,40.65
2022-08-11T16:19:42.555Z,41.34
2022-08-11T16:27:01.642Z,41.56
2022-08-11T16:30:10.410Z,41.32
2022-08-11T16:35:34.091Z,41.45
2022-08-11T16:40:38.566Z,41.25
2022-08-11T16:45:59.845Z,41.34
2022-08-11T16:51:02.965Z,41.20
2022-08-11T16:56:07.806Z,41.25
2022-08-11T17:01:10.866Z,41.40
2022-08-11T17:06:31.278Z,41.32
2022-08-11T17:12:09.902Z,41.24
2022-08-11T17:17:14.646Z,41.12
2022-08-11T17:22:35.356Z,41.37
2022-08-11T17:27:39.742Z,41.15
2022-08-11T17:33:01.826Z,41.05
2022-08-11T17:38:06.580Z,41.09
2022-08-11T17:43:36.831Z,41.17
2022-08-11T17:48:47.975Z,41.07
2022-08-11T17:54:24.685Z,41.33
2022-08-11T18:00:01.238Z,41.51
2022-08-11T18:05:07.430Z,41.34
2022-08-11T18:10:35.637Z,41.70
2022-08-11T18:16:02.519Z,41.61
2022-08-11T18:21:24.705Z,41.49
2022-08-11T18:26:45.240Z,41.85
2022-08-11T18:32:08.109Z,41.93
2022-08-11T18:37:30.202Z,41.85
2022-08-11T18:42:50.534Z,41.69
2022-08-11T18:48:14.752Z,38.83
2022-08-11T18:53:35.428Z,35.21
2022-08-11T18:58:55.898Z,33.64
2022-08-11T19:04:19.354Z,32.91
2022-08-11T19:09:39.665Z,33.68
2022-08-11T19:15:00.282Z,33.61
2022-08-11T19:20:22.337Z,33.72
2022-08-11T19:25:42.907Z,33.76
2022-08-11T19:31:03.494Z,33.38
2022-08-11T19:36:25.750Z,33.11
2022-08-11T19:41:57.234Z,32.38
2022-08-11T19:47:18.562Z,32.14
2022-08-11T19:52:40.645Z,31.61
2022-08-11T19:58:01.502Z,31.60
2022-08-11T20:03:24.312Z,32.66
2022-08-11T20:08:45.929Z,31.54
2022-08-11T20:14:07.598Z,30.99
2022-08-11T20:19:54.654Z,31.31
2022-08-11T20:25:11.284Z,33.14
2022-08-11T20:30:31.743Z,33.17
2022-08-11T20:35:52.387Z,32.79
2022-08-11T20:41:16.308Z,32.54
2022-08-11T20:46:36.854Z,32.85
2022-08-11T20:51:57.608Z,32.57
2022-08-11T20:57:20.807Z,32.48
2022-08-11T21:02:58.072Z,32.22
2022-08-11T21:08:19.494Z,32.26
2022-08-11T21:13:48.644Z,32.25
2022-08-11T21:19:13.807Z,32.04
2022-08-11T21:24:34.356Z,32.34
2022-08-11T21:29:56.125Z,31.95
2022-08-11T21:35:16.276Z,32.07
2022-08-11T21:40:36.652Z,32.11
2022-08-11T21:45:58.552Z,32.01
2022-08-11T21:51:19.105Z,32.24
2022-08-11T21:56:39.605Z,32.03
2022-08-11T22:02:02.673Z,32.35
2022-08-11T22:07:23.484Z,31.66
2022-08-11T22:12:45.170Z,31.84
2022-08-11T22:18:07.366Z,31.59
2022-08-11T22:23:36.325Z,32.24
2022-08-11T22:28:57.582Z,32.47
2022-08-11T22:34:18.903Z,32.05
2022-08-11T22:39:39.282Z,32.31
2022-08-11T22:44:59.584Z,31.86
2022-08-11T22:50:21.231Z,32.00
2022-08-11T22:55:41.531Z,32.21
2022-08-11T23:01:02.095Z,32.23
2022-08-11T23:06:24.042Z,32.00
2022-08-11T23:12:07.843Z,31.73
2022-08-11T23:17:24.272Z,32.26
2022-08-11T23:22:50.237Z,32.14
2022-08-11T23:28:10.918Z,32.19
2022-08-11T23:33:31.376Z,32.13
2022-08-11T23:38:53.047Z,32.13
2022-08-11T23:44:13.515Z,32.51
2022-08-11T23:49:34.146Z,32.23
2022-08-11T23:54:55.956Z,32.19
